Time;durP1;ratioP1;P1;durP2;ratioP2;P2;SDS_P1;SDS_P2;PMS_P1;PMS_P2;Temp;Humidity;BMP_temperature;BMP_pressure;BME280_temperature;BME280_humidity;BME280_pressure;Samples;Min_cycle;Max_cycle;Signal;HPM_P1;HPM_P2
2021/08/14 00:00:22;;;;;;;;;;;;;;;20.64;48.82;101094.48;1644888;86;20105;-81
2021/08/14 00:02:48;;;;;;;;;;;;;;;20.66;48.88;101087.38;1644912;86;20133;-81
2021/08/14 00:05:14;;;;;;;;;;;;;;;20.64;48.92;101083.52;1671888;84;20158;-81
2021/08/14 00:07:40;;;;;;;;;;;;;;;20.64;48.97;101082.66;1676321;85;20087;-81
2021/08/14 00:10:07;;;;;;;;;;;;;;;20.64;49.03;101082.20;1686260;84;20107;-81
2021/08/14 00:12:33;;;;;;;;;;;;;;;20.64;49.06;101080.03;1669886;84;20152;-81
2021/08/14 00:14:59;;;;;;;;;;;;;;;20.63;49.09;101080.50;1671114;84;20551;-81
2021/08/14 00:17:25;;;;;;;;;;;;;;;20.62;49.21;101080.11;1668235;84;20255;-81
2021/08/14 00:19:51;;;;;;;;;;;;;;;20.61;49.25;101078.41;1667238;85;20200;-81
2021/08/14 00:22:17;;;;;;;;;;;;;;;20.61;49.26;101077.09;1647248;84;20430;-81
2021/08/14 00:24:43;;;;;;;;;;;;;;;20.62;49.33;101074.86;1672597;84;20173;-81
2021/08/14 00:27:09;;;;;;;;;;;;;;;20.62;49.37;101076.17;1672248;85;20161;-81
2021/08/14 00:29:48;;;;;;;;;;;;;;;20.61;49.44;101073.16;1664070;84;20480;-81
2021/08/14 00:32:13;;;;;;;;;;;;;;;20.61;49.50;101077.09;1666614;85;20174;-81
2021/08/14 00:34:39;;;;;;;;;;;;;;;20.62;49.55;101076.63;1668160;84;20181;-81
2021/08/14 00:37:08;;;;;;;;;;;;;;;20.62;49.57;101076.63;1653759;85;20408;-81
2021/08/14 00:39:34;;;;;;;;;;;;;;;20.62;49.66;101068.75;1640121;86;20113;-81
2021/08/14 00:42:00;;;;;;;;;;;;;;;20.62;49.69;101063.03;1664891;84;20095;-81
2021/08/14 00:44:28;;;;;;;;;;;;;;;20.60;49.73;101059.63;1657070;84;20109;-81
2021/08/14 00:46:54;;;;;;;;;;;;;;;20.59;49.83;101062.34;1664363;84;20461;-81
2021/08/14 00:49:20;;;;;;;;;;;;;;;20.60;49.84;101066.66;1662085;86;20431;-81
2021/08/14 00:51:46;;;;;;;;;;;;;;;20.59;49.85;101061.02;1658671;85;20466;-81
2021/08/14 00:54:12;;;;;;;;;;;;;;;20.59;49.95;101063.65;1652351;84;20298;-81
2021/08/14 00:56:38;;;;;;;;;;;;;;;20.58;49.96;101057.55;1665284;86;20201;-81
2021/08/14 00:59:16;;;;;;;;;;;;;;;20.59;50.00;101052.67;1688208;84;20829;-81
2021/08/14 01:01:42;;;;;;;;;;;;;;;20.58;50.10;101050.98;1665538;84;20430;-81
2021/08/14 01:04:09;;;;;;;;;;;;;;;20.57;50.12;101057.16;1645006;85;20149;-81
2021/08/14 01:06:48;;;;;;;;;;;;;;;20.57;50.21;101055.84;1652633;86;20845;-81
2021/08/14 01:09:13;;;;;;;;;;;;;;;20.56;50.24;101054.61;1666832;85;20447;-81
2021/08/14 01:11:39;;;;;;;;;;;;;;;20.55;50.30;101056.38;1671906;84;21159;-81
2021/08/14 01:14:07;;;;;;;;;;;;;;;20.54;50.43;101053.38;1670096;85;20419;-81
2021/08/14 01:16:33;;;;;;;;;;;;;;;20.53;50.41;101049.05;1665663;84;20615;-81
2021/08/14 01:18:59;;;;;;;;;;;;;;;20.52;50.49;101057.85;1665523;85;20751;-81
2021/08/14 01:21:26;;;;;;;;;;;;;;;20.53;50.52;101056.08;1673384;84;20713;-81
2021/08/14 01:23:55;;;;;;;;;;;;;;;20.52;50.62;101054.37;1659006;85;20446;-81
2021/08/14 01:26:33;;;;;;;;;;;;;;;20.50;50.60;101053.14;1661393;84;20772;-81
2021/08/14 01:29:00;;;;;;;;;;;;;;;20.49;50.63;101048.81;1661527;86;20469;-81
2021/08/14 01:31:26;;;;;;;;;;;;;;;20.48;50.70;101050.59;1667129;84;20906;-81
2021/08/14 01:33:52;;;;;;;;;;;;;;;20.47;50.79;101050.66;1667655;85;20478;-81
2021/08/14 01:36:18;;;;;;;;;;;;;;;20.47;50.83;101053.29;1657528;85;20113;-81
2021/08/14 01:38:48;;;;;;;;;;;;;;;20.46;50.87;101048.96;1651528;86;20634;-81
2021/08/14 01:41:14;;;;;;;;;;;;;;;20.45;50.92;101049.42;1671944;84;20434;-81
2021/08/14 01:44:04;;;;;;;;;;;;;;;20.46;50.99;101045.02;1673737;84;20459;-81
2021/08/14 01:46:32;;;;;;;;;;;;;;;20.44;51.00;101051.66;1672774;85;20127;-81
2021/08/14 01:49:01;;;;;;;;;;;;;;;20.43;51.08;101056.53;1661020;84;20419;-81
2021/08/14 01:51:28;;;;;;;;;;;;;;;20.41;51.13;101049.66;1665000;86;20419;-81
2021/08/14 01:53:56;;;;;;;;;;;;;;;20.43;51.26;101060.94;1670084;84;20127;-81
2021/08/14 01:56:28;;;;;;;;;;;;;;;20.42;51.30;101090.30;1667737;85;20706;-81
2021/08/14 01:58:54;;;;;;;;;;;;;;;20.38;51.21;101095.77;1684850;84;20424;-81
2021/08/14 02:01:20;;;;;;;;;;;;;;;20.35;51.40;101096.74;1680379;84;20123;-81
2021/08/14 02:03:47;;;;;;;;;;;;;;;20.34;51.45;101092.88;1663389;85;20477;-81
2021/08/14 02:06:14;;;;;;;;;;;;;;;20.34;51.54;101096.35;1661365;86;20129;-81
2021/08/14 02:08:40;;;;;;;;;;;;;;;20.35;51.56;101094.11;1661471;86;20544;-81
2021/08/14 02:11:16;;;;;;;;;;;;;;;20.36;51.61;101089.71;1663391;84;20448;-82
2021/08/14 02:13:43;;;;;;;;;;;;;;;20.39;51.63;101091.76;1667602;84;20609;-81
2021/08/14 02:16:09;;;;;;;;;;;;;;;20.42;51.65;101096.02;1671390;84;20115;-81
2021/08/14 02:18:36;;;;;;;;;;;;;;;20.42;51.77;101090.30;1666935;85;20432;-81
2021/08/14 02:21:03;;;;;;;;;;;;;;;20.44;51.88;101087.13;1666778;85;20111;-81
2021/08/14 02:23:29;;;;;;;;;;;;;;;20.45;51.87;101084.89;1670510;84;20525;-81
2021/08/14 02:25:56;;;;;;;;;;;;;;;20.45;51.50;101090.14;1670176;84;20427;-81
2021/08/14 02:28:23;;;;;;;;;;;;;;;20.45;51.96;101089.30;1669920;85;20144;-81
2021/08/14 02:30:49;;;;;;;;;;;;;;;20.48;51.92;101100.97;1672197;84;20551;-81
2021/08/14 02:33:16;;;;;;;;;;;;;;;20.50;52.14;101096.48;1649228;84;20480;-81
2021/08/14 02:35:42;;;;;;;;;;;;;;;20.52;52.13;101109.55;1644818;87;20105;-81
2021/08/14 02:38:08;;;;;;;;;;;;;;;20.56;52.16;101111.09;1656455;84;20200;-81
2021/08/14 02:40:36;;;;;;;;;;;;;;;20.58;52.19;101113.19;1669561;85;20107;-81
2021/08/14 02:43:03;;;;;;;;;;;;;;;20.62;52.16;101117.36;1672148;85;20450;-81
2021/08/14 02:45:30;;;;;;;;;;;;;;;20.66;52.28;101114.97;1673055;84;20874;-81
2021/08/14 02:48:03;;;;;;;;;;;;;;;20.69;52.34;101117.45;1672318;84;20127;-81
2021/08/14 02:50:29;;;;;;;;;;;;;;;20.72;51.97;101122.55;1672205;85;20103;-81
2021/08/14 02:52:55;;;;;;;;;;;;;;;20.73;52.33;101122.94;1672119;84;20745;-81
2021/08/14 02:55:21;;;;;;;;;;;;;;;20.75;52.53;101126.34;1669929;85;20131;-81
2021/08/14 02:57:47;;;;;;;;;;;;;;;20.77;52.37;101128.43;1675935;84;20176;-81
2021/08/14 03:00:14;;;;;;;;;;;;;;;20.78;52.60;101136.23;1690782;83;20102;-81
2021/08/14 03:02:40;;;;;;;;;;;;;;;20.78;52.69;101140.19;1649430;85;20101;-81
2021/08/14 03:05:07;;;;;;;;;;;;;;;20.80;52.52;101140.08;1645063;87;20414;-81
2021/08/14 03:07:33;;;;;;;;;;;;;;;20.79;52.54;101137.94;1645640;84;20462;-81
2021/08/14 03:09:59;;;;;;;;;;;;;;;20.81;52.81;101144.41;1672101;84;20245;-81
2021/08/14 03:12:26;;;;;;;;;;;;;;;20.83;52.91;101151.75;1682744;84;20480;-81
2021/08/14 03:14:53;;;;;;;;;;;;;;;20.84;52.88;101146.88;1665667;85;20257;-81
2021/08/14 03:17:19;;;;;;;;;;;;;;;20.86;53.10;101154.69;1684175;85;20203;-81
2021/08/14 03:19:45;;;;;;;;;;;;;;;20.86;53.12;101147.66;1674015;85;20201;-81
2021/08/14 03:22:12;;;;;;;;;;;;;;;20.86;53.27;101160.80;1668479;84;20194;-81
2021/08/14 03:24:38;;;;;;;;;;;;;;;20.86;53.23;101157.31;1672708;85;21113;-81
2021/08/14 03:27:05;;;;;;;;;;;;;;;20.85;53.02;101163.03;1670147;84;20188;-81
2021/08/14 03:29:31;;;;;;;;;;;;;;;20.85;53.50;101155.16;1670132;85;20236;-81
2021/08/14 03:31:57;;;;;;;;;;;;;;;20.85;53.60;101156.47;1669564;83;20198;-81
2021/08/14 03:34:23;;;;;;;;;;;;;;;20.86;53.64;101163.42;1659899;84;20184;-81
2021/08/14 03:36:49;;;;;;;;;;;;;;;20.87;53.72;101165.59;1659618;85;20331;-81
2021/08/14 03:39:15;;;;;;;;;;;;;;;20.86;53.70;101170.46;1659405;86;20193;-81
2021/08/14 03:41:44;;;;;;;;;;;;;;;20.85;53.54;101187.16;1659244;86;20268;-82
2021/08/14 03:44:10;;;;;;;;;;;;;;;20.82;53.97;101182.91;1662777;84;20183;-81
2021/08/14 03:46:37;;;;;;;;;;;;;;;20.82;54.02;101185.07;1662063;84;20235;-81
2021/08/14 03:49:05;;;;;;;;;;;;;;;20.82;54.04;101188.16;1661856;84;20218;-81
2021/08/14 03:51:31;;;;;;;;;;;;;;;20.82;54.11;101197.36;1661882;84;20181;-81
2021/08/14 03:53:57;;;;;;;;;;;;;;;20.82;54.19;101190.33;1658274;85;20225;-81
2021/08/14 03:56:24;;;;;;;;;;;;;;;20.82;54.19;101195.59;1646887;85;20196;-81
2021/08/14 03:58:50;;;;;;;;;;;;;;;20.81;54.21;101196.97;1672409;84;20209;-81
2021/08/14 04:01:16;;;;;;;;;;;;;;;20.81;54.19;101193.88;1654657;84;20215;-81
2021/08/14 04:03:42;;;;;;;;;;;;;;;20.79;54.22;101196.23;1656926;84;20205;-81
2021/08/14 04:06:08;;;;;;;;;;;;;;;20.74;53.79;101193.83;1659211;84;479302;-81
2021/08/14 04:08:34;;;;;;;;;;;;;;;20.66;53.69;101193.34;1668021;84;20280;-81
2021/08/14 04:11:00;;;;;;;;;;;;;;;20.60;53.63;101203.30;1656978;84;20265;-81
2021/08/14 04:13:28;;;;;;;;;;;;;;;20.52;53.65;101208.08;1659406;86;20216;-81
2021/08/14 04:15:54;;;;;;;;;;;;;;;20.47;53.57;101199.95;1661721;84;20272;-81
2021/08/14 04:18:20;;;;;;;;;;;;;;;20.43;53.46;101202.33;1661053;85;20188;-81
2021/08/14 04:20:46;;;;;;;;;;;;;;;20.38;53.53;101207.41;1664790;86;20186;-80
2021/08/14 04:23:12;;;;;;;;;;;;;;;20.38;53.44;101208.73;1672186;84;20257;-80
2021/08/14 04:25:38;;;;;;;;;;;;;;;20.37;53.47;101210.93;1667347;84;20255;-80
2021/08/14 04:28:04;;;;;;;;;;;;;;;20.36;53.59;101215.80;1653733;85;20195;-80
2021/08/14 04:30:40;;;;;;;;;;;;;;;20.34;53.65;101210.61;1653761;84;20212;-80
2021/08/14 04:33:05;;;;;;;;;;;;;;;20.39;53.74;101211.74;1666885;84;20459;-80
2021/08/14 04:35:32;;;;;;;;;;;;;;;20.43;53.70;101218.09;1669849;86;20197;-80
2021/08/14 04:38:00;;;;;;;;;;;;;;;20.43;53.61;101223.34;1673689;84;20221;-80
2021/08/14 04:40:26;;;;;;;;;;;;;;;20.43;53.70;101219.41;1670199;85;20404;-80
2021/08/14 04:42:52;;;;;;;;;;;;;;;20.45;53.77;101226.75;1670301;85;20295;-80
2021/08/14 04:45:18;;;;;;;;;;;;;;;20.47;53.78;101226.22;1671860;84;20190;-80
2021/08/14 04:47:44;;;;;;;;;;;;;;;20.51;53.88;101230.87;1675409;83;20202;-80
2021/08/14 04:50:11;;;;;;;;;;;;;;;20.56;53.87;101229.34;1659276;84;20196;-80
2021/08/14 04:52:37;;;;;;;;;;;;;;;20.60;53.86;101230.89;1642851;87;20313;-80
2021/08/14 04:55:03;;;;;;;;;;;;;;;20.63;53.87;101226.81;1678528;84;20217;-80
2021/08/14 04:57:29;;;;;;;;;;;;;;;20.66;53.91;101224.88;1685415;84;20211;-79
2021/08/14 04:59:56;;;;;;;;;;;;;;;20.74;53.95;101229.31;1683027;83;20099;-79
2021/08/14 05:02:30;;;;;;;;;;;;;;;20.81;53.93;101223.26;1644961;85;20113;-79
2021/08/14 05:04:56;;;;;;;;;;;;;;;20.86;53.94;101225.20;1658421;84;20127;-79
2021/08/14 05:07:22;;;;;;;;;;;;;;;20.92;53.93;101225.37;1649326;85;20102;-79
2021/08/14 05:09:52;;;;;;;;;;;;;;;20.99;53.84;101236.82;1667465;84;20103;-79
2021/08/14 05:12:18;;;;;;;;;;;;;;;21.00;53.93;101246.41;1652561;84;20133;-79
2021/08/14 05:14:44;;;;;;;;;;;;;;;21.04;53.92;101255.86;1650489;85;20144;-79
2021/08/14 05:17:11;;;;;;;;;;;;;;;21.10;53.98;101254.70;1663633;84;20134;-79
2021/08/14 05:19:37;;;;;;;;;;;;;;;21.14;53.94;101261.05;1665654;84;20233;-79
2021/08/14 05:22:04;;;;;;;;;;;;;;;21.23;54.00;101268.13;1665186;84;20220;-79
2021/08/14 05:24:30;;;;;;;;;;;;;;;21.36;54.08;101265.24;1658519;85;20135;-79
2021/08/14 05:26:56;;;;;;;;;;;;;;;21.62;54.22;101264.77;1653118;85;20121;-80
2021/08/14 05:29:22;;;;;;;;;;;;;;;21.90;53.98;101268.11;1662230;84;20224;-80
2021/08/14 05:31:48;;;;;;;;;;;;;;;22.17;54.18;101271.56;1663773;84;20816;-80
2021/08/14 05:34:14;;;;;;;;;;;;;;;22.61;54.21;101266.00;1662145;84;20145;-80
2021/08/14 05:36:41;;;;;;;;;;;;;;;23.03;54.05;101272.42;1658937;84;20109;-80
2021/08/14 05:39:07;;;;;;;;;;;;;;;23.40;53.86;101264.52;1662379;84;20329;-80
2021/08/14 05:41:38;;;;;;;;;;;;;;;23.74;53.76;101266.88;1652658;85;20193;-80
2021/08/14 05:44:01;;;;;;;;;;;;;;;24.06;53.74;101263.55;1661180;84;20304;-79
2021/08/14 05:46:27;;;;;;;;;;;;;;;24.41;53.54;101274.61;1647963;84;20235;-80
2021/08/14 05:48:55;;;;;;;;;;;;;;;24.63;53.20;101263.95;1646372;84;20210;-80
2021/08/14 05:51:23;;;;;;;;;;;;;;;24.96;53.35;101266.20;1668747;85;20789;-80
2021/08/14 05:53:52;;;;;;;;;;;;;;;25.41;53.01;101260.97;1673102;84;20205;-80
2021/08/14 05:56:18;;;;;;;;;;;;;;;25.71;52.91;101264.19;1676293;85;20225;-80
2021/08/14 05:58:44;;;;;;;;;;;;;;;26.17;52.89;101268.89;1662881;84;20755;-80
2021/08/14 06:01:10;;;;;;;;;;;;;;;26.54;52.76;101267.59;1658739;84;20208;-80
2021/08/14 06:03:36;;;;;;;;;;;;;;;26.79;52.44;101268.83;1654630;85;20298;-80
2021/08/14 06:06:04;;;;;;;;;;;;;;;27.00;52.21;101269.92;1648494;86;20201;-80
2021/08/14 06:08:31;;;;;;;;;;;;;;;27.32;52.11;101271.95;1661019;84;20764;-80
2021/08/14 06:10:58;;;;;;;;;;;;;;;27.55;51.75;101279.50;1656924;85;20111;-80
2021/08/14 06:13:26;;;;;;;;;;;;;;;27.69;51.62;101280.61;1656445;85;20143;-80
2021/08/14 06:15:52;;;;;;;;;;;;;;;27.91;51.43;101277.14;1664940;84;20154;-81
2021/08/14 06:18:18;;;;;;;;;;;;;;;28.20;51.38;101270.83;1654551;85;20138;-81
2021/08/14 06:20:44;;;;;;;;;;;;;;;28.40;51.14;101269.27;1656100;84;20103;-81
2021/08/14 06:23:10;;;;;;;;;;;;;;;28.53;51.04;101275.29;1664186;84;20146;-81
2021/08/14 06:25:39;;;;;;;;;;;;;;;28.56;50.67;101283.03;1655917;85;20129;-81
2021/08/14 06:28:05;;;;;;;;;;;;;;;28.55;50.25;101277.34;1655830;85;20142;-86
2021/08/14 06:30:31;;;;;;;;;;;;;;;28.52;50.14;101281.58;1660912;84;20106;-84
2021/08/14 06:32:59;;;;;;;;;;;;;;;28.46;50.36;101283.41;1663525;84;20141;-84
2021/08/14 06:35:25;;;;;;;;;;;;;;;28.41;50.11;101290.42;1660229;86;20154;-84
2021/08/14 06:37:51;;;;;;;;;;;;;;;28.56;49.91;101293.19;1652032;84;20192;-83
2021/08/14 06:40:17;;;;;;;;;;;;;;;28.80;50.14;101290.31;1654352;84;20788;-80
2021/08/14 06:42:43;;;;;;;;;;;;;;;28.74;49.14;101287.31;1649784;86;20615;-80
2021/08/14 06:45:10;;;;;;;;;;;;;;;28.78;49.38;101291.41;1651268;84;20217;-80
2021/08/14 06:47:37;;;;;;;;;;;;;;;29.02;49.38;101288.59;1654366;85;20177;-81
2021/08/14 06:50:05;;;;;;;;;;;;;;;29.29;48.99;101287.10;1648461;84;20224;-81
2021/08/14 06:52:34;;;;;;;;;;;;;;;29.50;48.81;101299.14;1656906;85;20228;-81
2021/08/14 06:55:01;;;;;;;;;;;;;;;29.61;48.42;101300.41;1656733;84;20188;-81
2021/08/14 06:57:29;;;;;;;;;;;;;;;29.82;48.22;101304.36;1659784;84;20129;-81
2021/08/14 06:59:55;;;;;;;;;;;;;;;30.03;48.04;101312.84;1650169;84;20171;-80
2021/08/14 07:02:21;;;;;;;;;;;;;;;29.95;47.37;101311.66;1654337;84;20213;-80
2021/08/14 07:04:47;;;;;;;;;;;;;;;29.97;47.59;101308.86;1651343;85;20785;-80
2021/08/14 07:07:18;;;;;;;;;;;;;;;30.01;47.60;101306.31;1648128;84;20201;-80
2021/08/14 07:09:45;;;;;;;;;;;;;;;30.10;47.32;101302.00;1649403;84;20212;-80
2021/08/14 07:12:11;;;;;;;;;;;;;;;30.29;47.26;101305.56;1644680;86;20227;-80
2021/08/14 07:14:37;;;;;;;;;;;;;;;30.50;47.08;101309.49;1652616;84;20190;-81
2021/08/14 07:17:07;;;;;;;;;;;;;;;30.58;46.77;101304.84;1651153;85;20190;-81
2021/08/14 07:19:33;;;;;;;;;;;;;;;30.60;46.01;101301.05;1656122;86;20301;-80
2021/08/14 07:21:59;;;;;;;;;;;;;;;30.48;46.33;101299.93;1660257;85;20578;-80
2021/08/14 07:24:25;;;;;;;;;;;;;;;30.23;45.98;101293.25;1662626;84;20187;-80
2021/08/14 07:26:51;;;;;;;;;;;;;;;30.07;45.91;101295.60;1655617;85;20249;-80
2021/08/14 07:29:17;;;;;;;;;;;;;;;29.94;45.62;101303.30;1660763;84;20199;-80
2021/08/14 07:31:43;;;;;;;;;;;;;;;30.11;45.50;101297.02;1659191;85;20266;-80
2021/08/14 07:34:09;;;;;;;;;;;;;;;30.28;45.28;101309.70;1664246;84;20182;-80
2021/08/14 07:36:35;;;;;;;;;;;;;;;30.43;45.42;101311.50;1653700;85;20195;-80
2021/08/14 07:39:01;;;;;;;;;;;;;;;30.55;44.88;101310.42;1658022;84;20186;-82
2021/08/14 07:41:29;;;;;;;;;;;;;;;30.54;44.70;101315.41;1647236;85;20467;-81
2021/08/14 07:43:55;;;;;;;;;;;;;;;30.25;44.22;101312.63;1657698;85;20281;-81
2021/08/14 07:46:21;;;;;;;;;;;;;;;30.21;44.14;101312.06;1656899;84;20240;-80
2021/08/14 07:48:49;;;;;;;;;;;;;;;30.35;44.11;101308.67;1658241;85;20374;-79
2021/08/14 07:51:15;;;;;;;;;;;;;;;30.53;43.88;101315.05;1646012;85;20209;-79
2021/08/14 07:53:40;;;;;;;;;;;;;;;30.53;43.55;101311.89;1650190;84;20400;-79
2021/08/14 07:56:13;;;;;;;;;;;;;;;30.77;43.50;101316.02;1639678;86;20324;-79
2021/08/14 07:58:39;;;;;;;;;;;;;;;30.92;42.57;101309.30;1653694;84;20217;-80
2021/08/14 08:01:05;;;;;;;;;;;;;;;30.68;42.83;101315.51;1657388;85;20369;-79
2021/08/14 08:03:31;;;;;;;;;;;;;;;30.58;42.78;101313.69;1651386;85;20194;-78
2021/08/14 08:05:57;;;;;;;;;;;;;;;30.63;42.74;101311.95;1647503;86;20584;-80
2021/08/14 08:08:23;;;;;;;;;;;;;;;30.74;42.54;101322.48;1655723;84;20185;-82
2021/08/14 08:10:49;;;;;;;;;;;;;;;30.79;42.36;101321.58;1647107;85;20850;-81
2021/08/14 08:13:20;;;;;;;;;;;;;;;30.77;42.33;101318.69;1657877;84;20174;-84
2021/08/14 08:15:46;;;;;;;;;;;;;;;30.68;41.97;101321.69;1654011;85;20186;-82
2021/08/14 08:18:12;;;;;;;;;;;;;;;30.65;41.86;101313.98;1659540;86;20226;-79
2021/08/14 08:20:40;;;;;;;;;;;;;;;30.42;41.65;101315.16;1655753;86;20333;-78
2021/08/14 08:23:06;;;;;;;;;;;;;;;30.19;41.34;101317.17;1662235;84;20429;-78
2021/08/14 08:25:32;;;;;;;;;;;;;;;30.07;41.94;101313.78;1661538;85;20395;-77
2021/08/14 08:28:04;;;;;;;;;;;;;;;30.04;41.54;101310.05;1652879;84;20371;-78
2021/08/14 08:30:32;;;;;;;;;;;;;;;30.05;41.32;101302.41;1654142;85;21091;-77
2021/08/14 08:32:58;;;;;;;;;;;;;;;30.01;41.22;101300.98;1651673;84;20135;-77
2021/08/14 08:35:25;;;;;;;;;;;;;;;30.08;41.28;101302.63;1675036;84;20087;-77
2021/08/14 08:37:51;;;;;;;;;;;;;;;30.20;41.20;101299.70;1677711;84;20119;-77
2021/08/14 08:40:18;;;;;;;;;;;;;;;30.11;41.16;101295.69;1672732;85;20214;-78
2021/08/14 08:42:45;;;;;;;;;;;;;;;29.86;40.75;101293.78;1674963;84;20089;-78
2021/08/14 08:45:13;;;;;;;;;;;;;;;29.75;40.60;101288.53;1634841;87;20089;-77
2021/08/14 08:47:42;;;;;;;;;;;;;;;29.53;40.51;101286.04;1644205;86;20124;-77
2021/08/14 08:50:10;;;;;;;;;;;;;;;29.54;40.49;101276.58;1642670;87;20177;-77
2021/08/14 08:52:36;;;;;;;;;;;;;;;29.59;40.20;101277.03;1653374;84;20240;-77
2021/08/14 08:55:03;;;;;;;;;;;;;;;29.98;40.24;101278.55;1650548;84;20185;-77
2021/08/14 08:57:29;;;;;;;;;;;;;;;30.18;40.00;101279.47;1660203;84;20202;-77
2021/08/14 08:59:57;;;;;;;;;;;;;;;30.58;40.11;101284.81;1660123;85;20291;-77
2021/08/14 09:02:28;;;;;;;;;;;;;;;31.08;40.14;101290.88;1662821;84;20451;-77
2021/08/14 09:05:07;;;;;;;;;;;;;;;31.51;40.06;101281.56;1654165;84;20141;-77
2021/08/14 09:07:40;;;;;;;;;;;;;;;31.80;40.01;101284.17;1661222;84;20580;-77
2021/08/14 09:10:10;;;;;;;;;;;;;;;32.11;39.94;101289.62;1654643;84;20157;-77
2021/08/14 09:12:40;;;;;;;;;;;;;;;32.28;39.77;101292.50;1661765;84;20195;-77
2021/08/14 09:15:17;;;;;;;;;;;;;;;32.34;39.67;101279.86;1666222;85;20107;-77
2021/08/14 09:17:44;;;;;;;;;;;;;;;32.22;39.74;101292.62;1660352;84;20122;-77
2021/08/14 09:20:16;;;;;;;;;;;;;;;31.58;39.18;101292.03;1663273;84;20404;-77
2021/08/14 09:22:45;;;;;;;;;;;;;;;30.83;38.80;101276.74;1660773;85;20086;-77
2021/08/14 09:25:16;;;;;;;;;;;;;;;30.18;38.77;101268.80;1659126;84;20162;-77
2021/08/14 09:27:53;;;;;;;;;;;;;;;29.77;38.61;101271.91;1656339;85;20121;-77
2021/08/14 09:30:20;;;;;;;;;;;;;;;29.37;38.32;101273.13;1659685;85;20123;-77
2021/08/14 09:33:07;;;;;;;;;;;;;;;28.92;37.96;101278.69;1655460;85;20353;-77
2021/08/14 09:35:34;;;;;;;;;;;;;;;28.57;37.80;101290.04;1640247;86;20174;-77
2021/08/14 09:38:08;;;;;;;;;;;;;;;28.21;37.71;101289.35;1663023;84;20097;-77
2021/08/14 09:40:36;;;;;;;;;;;;;;;27.96;37.61;101286.93;1662456;84;20938;-77
2021/08/14 09:43:03;;;;;;;;;;;;;;;27.80;37.68;101279.78;1661497;84;20099;-77
2021/08/14 09:45:29;;;;;;;;;;;;;;;27.73;37.53;101278.08;1657788;84;20569;-77
2021/08/14 09:47:55;;;;;;;;;;;;;;;27.71;37.40;101281.82;1663701;84;20141;-77
2021/08/14 09:50:34;;;;;;;;;;;;;;;27.68;37.24;101282.42;1652135;84;20190;-77
2021/08/14 09:53:16;;;;;;;;;;;;;;;27.68;37.19;101290.39;1653595;84;20205;-78
2021/08/14 09:55:45;;;;;;;;;;;;;;;27.75;37.23;101299.23;1654340;84;20212;-78
2021/08/14 09:58:17;;;;;;;;;;;;;;;27.87;37.16;101292.96;1655664;84;20517;-78
2021/08/14 10:00:48;;;;;;;;;;;;;;;27.91;37.08;101284.63;1660579;84;20113;-78
2021/08/14 10:03:17;;;;;;;;;;;;;;;27.95;37.03;101285.23;1653756;84;20138;-78
2021/08/14 10:05:44;;;;;;;;;;;;;;;28.04;37.11;101283.19;1654916;84;20199;-78
2021/08/14 10:08:11;;;;;;;;;;;;;;;28.10;37.11;101280.02;1659686;84;20129;-79
2021/08/14 10:10:37;;;;;;;;;;;;;;;28.12;36.93;101284.73;1649977;84;316499;-79
2021/08/14 10:13:04;;;;;;;;;;;;;;;28.16;37.02;101277.35;1667747;84;20161;-79
2021/08/14 10:15:30;;;;;;;;;;;;;;;28.10;36.98;101273.84;1665935;85;20107;-79
2021/08/14 10:17:56;;;;;;;;;;;;;;;27.96;36.80;101273.64;1624567;86;20510;-79
2021/08/14 10:20:23;;;;;;;;;;;;;;;27.83;36.77;101275.55;1656741;84;20843;-79
2021/08/14 10:22:57;;;;;;;;;;;;;;;27.80;36.79;101268.67;1665259;85;20407;-79
2021/08/14 10:25:24;;;;;;;;;;;;;;;27.82;36.72;101270.72;1671110;85;20094;-79
2021/08/14 10:28:00;;;;;;;;;;;;;;;27.78;36.63;101260.45;1675189;84;20087;-79
2021/08/14 10:30:44;;;;;;;;;;;;;;;27.75;36.71;101267.33;1672204;85;20109;-79
2021/08/14 10:33:32;;;;;;;;;;;;;;;27.76;36.61;101258.39;1672743;84;20095;-79
2021/08/14 10:36:23;;;;;;;;;;;;;;;27.78;36.74;101259.12;1649024;86;20431;-79
2021/08/14 10:38:52;;;;;;;;;;;;;;;27.87;36.71;101256.59;1662197;86;20103;-79
2021/08/14 10:41:18;;;;;;;;;;;;;;;27.94;36.66;101250.31;1647101;86;20105;-79
2021/08/14 10:43:57;;;;;;;;;;;;;;;28.00;36.70;101253.81;1653552;84;20122;-79
2021/08/14 10:46:42;;;;;;;;;;;;;;;28.01;36.54;101244.39;1647267;86;20427;-79
2021/08/14 10:49:15;;;;;;;;;;;;;;;28.04;36.40;101244.63;1660615;84;20736;-79
2021/08/14 10:51:51;;;;;;;;;;;;;;;27.95;36.35;101240.04;1666249;85;20107;-79
2021/08/14 10:54:35;;;;;;;;;;;;;;;27.94;36.41;101240.52;1653894;86;20101;-79
2021/08/14 10:57:08;;;;;;;;;;;;;;;27.93;36.32;101241.48;1662514;84;20446;-79
2021/08/14 10:59:41;;;;;;;;;;;;;;;27.90;36.26;101239.55;1667947;84;20141;-79
2021/08/14 11:02:14;;;;;;;;;;;;;;;27.80;36.32;101234.59;1651495;85;20459;-79
2021/08/14 11:04:54;;;;;;;;;;;;;;;27.67;36.30;101235.55;1666824;86;20111;-79
2021/08/14 11:07:24;;;;;;;;;;;;;;;27.60;36.19;101235.66;1659760;84;20529;-79
2021/08/14 11:09:58;;;;;;;;;;;;;;;27.59;36.32;101229.98;1650534;84;20188;-79
2021/08/14 11:12:34;;;;;;;;;;;;;;;27.60;36.29;101234.34;1663902;84;20533;-79
2021/08/14 11:15:15;;;;;;;;;;;;;;;27.57;36.26;101227.05;1637900;87;20201;-79
2021/08/14 11:17:44;;;;;;;;;;;;;;;27.49;36.29;101225.50;1653798;84;20490;-79
2021/08/14 11:20:23;;;;;;;;;;;;;;;27.40;36.19;101227.06;1668255;85;20099;-79
2021/08/14 11:22:56;;;;;;;;;;;;;;;27.32;36.33;101225.47;1664580;84;20538;-79
2021/08/14 11:25:25;;;;;;;;;;;;;;;27.21;36.22;101226.28;1668656;84;20244;-79
2021/08/14 11:27:57;;;;;;;;;;;;;;;27.18;36.29;101217.22;1658919;86;20208;-79
2021/08/14 11:30:29;;;;;;;;;;;;;;;27.17;36.35;101218.19;1661916;84;20138;-79
2021/08/14 11:33:05;;;;;;;;;;;;;;;27.15;36.34;101200.20;1653700;85;20504;-79
2021/08/14 11:35:31;;;;;;;;;;;;;;;27.15;36.39;101202.00;1666296;84;20170;-79
2021/08/14 11:37:59;;;;;;;;;;;;;;;27.19;36.43;101192.84;1674441;84;20186;-79
2021/08/14 11:40:35;;;;;;;;;;;;;;;27.20;36.37;101198.52;1669136;85;20437;-79
2021/08/14 11:43:01;;;;;;;;;;;;;;;27.23;36.37;101192.97;1669404;85;20177;-79
2021/08/14 11:45:28;;;;;;;;;;;;;;;27.21;36.28;101185.13;1649616;85;20138;-79
2021/08/14 11:48:10;;;;;;;;;;;;;;;27.15;36.43;101186.92;1665094;84;20472;-79
2021/08/14 11:50:48;;;;;;;;;;;;;;;27.20;36.52;101189.23;1643713;86;20216;-79
2021/08/14 11:53:27;;;;;;;;;;;;;;;27.26;36.51;101183.45;1664949;85;20494;-79
2021/08/14 11:56:04;;;;;;;;;;;;;;;27.29;36.53;101183.21;1668980;84;20498;-80
2021/08/14 11:58:31;;;;;;;;;;;;;;;27.29;36.42;101180.55;1685850;84;20433;-80
2021/08/14 12:00:58;;;;;;;;;;;;;;;27.25;36.50;101177.77;1700277;83;20194;-80
2021/08/14 12:03:25;;;;;;;;;;;;;;;27.26;36.48;101172.82;1659271;84;20097;-80
2021/08/14 12:06:06;;;;;;;;;;;;;;;27.23;36.53;101174.39;1666583;85;20489;-80
2021/08/14 12:08:34;;;;;;;;;;;;;;;27.23;36.57;101165.94;1666495;86;20464;-80
2021/08/14 12:11:03;;;;;;;;;;;;;;;27.27;36.63;101163.41;1667744;84;20441;-80
2021/08/14 12:13:30;;;;;;;;;;;;;;;27.32;36.58;101161.25;1663438;85;20753;-80
2021/08/14 12:16:13;;;;;;;;;;;;;;;27.35;36.60;101158.35;1670735;84;20499;-80
2021/08/14 12:18:46;;;;;;;;;;;;;;;27.33;36.56;101150.98;1665903;84;20447;-80
2021/08/14 12:21:13;;;;;;;;;;;;;;;27.32;36.59;101143.98;1666781;85;20151;-80
2021/08/14 12:23:40;;;;;;;;;;;;;;;27.31;36.60;101146.76;1670887;84;20414;-80
2021/08/14 12:26:11;;;;;;;;;;;;;;;27.32;36.62;101149.30;1664882;85;20509;-79
2021/08/14 12:28:41;;;;;;;;;;;;;;;27.35;36.53;101141.09;1669844;85;20094;-79
2021/08/14 12:31:18;;;;;;;;;;;;;;;27.32;36.54;101139.16;1668741;84;20139;-79
2021/08/14 12:33:50;;;;;;;;;;;;;;;27.34;36.53;101147.37;1671275;84;20453;-79
2021/08/14 12:36:32;;;;;;;;;;;;;;;27.37;36.47;101142.30;1659050;84;20421;-79
2021/08/14 12:39:03;;;;;;;;;;;;;;;27.37;36.56;101134.33;1593965;85;20421;-79
2021/08/14 12:41:38;;;;;;;;;;;;;;;27.36;36.46;101124.19;1645478;85;20130;-79